Flight Track Log - Related Links

Times and Time Zones

All times are in EDT time to prevent confusion due to time zone crossing. See the UAL1020 flight status page for this flight to view local times or setup timezone preferences in your user account.

Time Position Orientation Groundspeed Altitude Reporting Facility
EDT Latitude Longitude Course Direction KTS MPH feet Rate Location/Type
Tue 05:05:36 PM 29.9567 -95.3375 197° South 173 199 900  Level FlightAware ADS-B
Tue 05:05:49 PM 29.9491 -95.3281 133° Southeast 184 212 1,300 1,448 Climbing FlightAware ADS-B
Tue 05:06:05 PM 29.9398 -95.3152 130° Southeast 202 232 1,600 1,355 Climbing FlightAware ADS-B
Tue 05:06:20 PM 29.9302 -95.3018 130° Southeast 224 258 2,000 2,200 Climbing FlightAware ADS-B
Tue 05:06:35 PM 29.9201 -95.2876 129° Southeast 228 262 2,700 2,903 Climbing FlightAware ADS-B
Tue 05:06:51 PM 29.9096 -95.2733 130° Southeast 228 262 3,500 2,516 Climbing FlightAware ADS-B
Tue 05:07:06 PM 29.8985 -95.2583 130° Southeast 241 277 4,000 968 Climbing FlightAware ADS-B
Tue 05:07:22 PM 29.8863 -95.2421 131° Southeast 265 305 4,000  Level FlightAware ADS-B
Tue 05:07:37 PM 29.8740 -95.2253 130° Southeast 270 311 4,000  Level FlightAware ADS-B
Tue 05:07:53 PM 29.8612 -95.2080 130° Southeast 272 313 4,000  Level FlightAware ADS-B
Tue 05:08:04 PM 29.8523 -95.1961 131° Southeast 272 313 4,000 462 Level FlightAware ADS-B
Tue 05:08:19 PM 29.8399 -95.1790 130° Southeast 271 312 4,200 1,400 Climbing FlightAware ADS-B
Tue 05:08:34 PM 29.8274 -95.1617 130° Southeast 275 316 4,700 2,516 Climbing FlightAware ADS-B
Tue 05:08:50 PM 29.8147 -95.1446 131° Southeast 275 316 5,500 3,462 Climbing FlightAware ADS-B
Tue 05:09:00 PM 29.8067 -95.1336 130° Southeast 275 316 6,200 3,900 Climbing FlightAware ADS-B
Tue 05:09:10 PM 29.7980 -95.1217 130° Southeast 278 320 6,800 3,231 Climbing FlightAware ADS-B
Tue 05:09:26 PM 29.7849 -95.1036 130° Southeast 286 329 7,600 2,870 Climbing FlightAware ADS-B
Tue 05:09:56 PM 29.7586 -95.0677 130° Southeast 296 341 9,000 2,933 Climbing FlightAware ADS-B
Tue 05:10:11 PM 29.7451 -95.0492 130° Southeast 299 344 9,800 3,000 Climbing FlightAware ADS-B
Tue 05:10:18 PM 29.7387 -95.0407 131° Southeast 302 348 10,100 2,400 Climbing FlightAware ADS-B
Tue 05:10:26 PM 29.7300 -95.0318 141° Southeast 307 353 10,400 1,875 Climbing FlightAware ADS-B
Tue 05:10:34 PM 29.7204 -95.0242 145° Southeast 319 367 10,600 1,500 Climbing FlightAware ADS-B
Tue 05:10:42 PM 29.7101 -95.0178 152° Southeast 326 375 10,800 2,240 Climbing FlightAware ADS-B
Tue 05:11:49 PM 29.6105 -94.9829 164° South 360 414 13,400 2,351 Climbing FlightAware ADS-B
Tue 05:12:19 PM 29.5607 -94.9661 164° South 371 427 14,600 2,471 Climbing FlightAware ADS-B
Tue 05:12:57 PM 29.4976 -94.9447 164° South 383 441 16,200 2,609 Climbing FlightAware ADS-B
Tue 05:13:28 PM 29.4444 -94.9267 164° South 386 444 17,600 2,556 Climbing FlightAware ADS-B
Tue 05:13:51 PM 29.4037 -94.9127 163° South 391 450 18,500 2,483 Climbing FlightAware ADS-B
Tue 05:13:57 PM 29.3936 -94.9078 157° South 394 453 18,800 2,308 Climbing FlightAware ADS-B
Tue 05:14:04 PM 29.3827 -94.9009 151° Southeast 397 457 19,000 2,250 Climbing FlightAware ADS-B
Tue 05:14:13 PM 29.3702 -94.8908 145° Southeast 401 461 19,400 2,250 Climbing FlightAware ADS-B
Tue 05:14:28 PM 29.3492 -94.8673 133° Southeast 410 472 19,900 1,600 Climbing FlightAware ADS-B
Tue 05:14:58 PM 29.3121 -94.8150 129° Southeast 427 491 20,600 1,574 Climbing FlightAware ADS-B
Tue 05:15:29 PM 29.2738 -94.7613 129° Southeast 438 504 21,500 2,066 Climbing FlightAware ADS-B
Tue 05:15:59 PM 29.2343 -94.7065 130° Southeast 441 507 22,700 2,200 Climbing FlightAware ADS-B
Tue 05:16:29 PM 29.1949 -94.6518 130° Southeast 442 509 23,700 1,967 Climbing FlightAware ADS-B
Tue 05:17:00 PM 29.1554 -94.5973 130° Southeast 448 516 24,700 1,869 Climbing FlightAware ADS-B
Tue 05:17:30 PM 29.1154 -94.5420 130° Southeast 451 519 25,600 1,700 Climbing FlightAware ADS-B
Tue 05:18:00 PM 29.0741 -94.4851 130° Southeast 457 526 26,400 1,475 Climbing FlightAware ADS-B
Tue 05:18:31 PM 29.0327 -94.4281 130° Southeast 463 533 27,100 1,475 Climbing FlightAware ADS-B
Tue 05:19:01 PM 28.9909 -94.3706 130° Southeast 467 537 27,900 1,475 Climbing FlightAware ADS-B
Tue 05:19:32 PM 28.9479 -94.3116 130° Southeast 471 542 28,600 1,377 Climbing FlightAware ADS-B
Tue 05:20:02 PM 28.9056 -94.2536 130° Southeast 474 545 29,300 1,574 Climbing FlightAware ADS-B
Tue 05:20:33 PM 28.8635 -94.1959 130° Southeast 473 544 30,200 1,967 Climbing FlightAware ADS-B
Tue 05:21:03 PM 28.8207 -94.1371 130° Southeast 465 535 31,300 1,935 Climbing FlightAware ADS-B
Tue 05:21:35 PM 28.7781 -94.0788 130° Southeast 459 528 32,200 1,645 Climbing FlightAware ADS-B
Tue 05:22:05 PM 28.7362 -94.0219 130° Southeast 457 526 33,000 1,548 Climbing FlightAware ADS-B
Tue 05:22:37 PM 28.6937 -93.9646 130° Southeast 454 522 33,800 1,355 Climbing FlightAware ADS-B
Tue 05:23:07 PM 28.6531 -93.9095 130° Southeast 452 520 34,400 1,082 Climbing FlightAware ADS-B
Tue 05:23:38 PM 28.6119 -93.8535 130° Southeast 455 524 34,900 857 Climbing FlightAware ADS-B
Tue 05:24:10 PM 28.5677 -93.7934 130° Southeast 459 528 35,300 738 Climbing FlightAware ADS-B
Tue 05:24:43 PM 28.5232 -93.7330 130° Southeast 462 532 35,700 806 Climbing FlightAware ADS-B
Tue 05:25:17 PM 28.4762 -93.6692 130° Southeast 464 534 36,200 738 Climbing FlightAware ADS-B
Tue 05:25:48 PM 28.4332 -93.6112 130° Southeast 466 536 36,500 689 Climbing FlightAware ADS-B
Tue 05:26:18 PM 28.3909 -93.5542 130° Southeast 467 537 36,900 353 Climbing FlightAware ADS-B
Tue 05:27:13 PM 28.3150 -93.4522 130° Southeast 464 534 37,000 70 Climbing FlightAware ADS-B
Tue 05:27:44 PM 28.2719 -93.3945 130° Southeast 458 527 37,000  Level FlightAware ADS-B
Tue 05:28:32 PM 28.2066 -93.3083 131° Southeast 457 526 37,000  Level FlightAware ADS-B
Tue 05:29:06 PM 28.1601 -93.2462 130° Southeast 457 526 37,000  Level FlightAware ADS-B
Tue 05:29:36 PM 28.1191 -93.1913 130° Southeast 456 525 37,000  Level FlightAware ADS-B
Tue 05:30:37 PM 28.0353 -93.0787 130° Southeast 456 525 37,000 -43 Level FlightAware ADS-B
Tue 05:31:57 PM 27.9450 -92.9558 130° Southeast 456 525 36,900  Descending Houston Center
Tue 05:32:59 PM 27.8472 -92.8269 131° Southeast 453 521 37,000 48 Climbing Houston Center
Tue 05:34:01 PM 27.7656 -92.7200 131° Southeast 450 518 37,000  Level Houston Center
Tue 05:35:03 PM 27.6858 -92.6133 130° Southeast 447 514 37,000  Level Houston Center
Tue 05:36:05 PM 27.6047 -92.5100 132° Southeast 443 510 37,000  Level Houston Center
Tue 05:37:07 PM 27.5250 -92.4061 131° Southeast 439 505 37,000  Level Houston Center
Tue 05:38:10 PM 27.4461 -92.3028 131° Southeast 436 502 37,000  Level Houston Center
Tue 05:39:12 PM 27.3519 -92.1789 131° Southeast 434 499 37,000  Level Houston Center
Tue 05:40:14 PM 27.2731 -92.0769 131° Southeast 434 499 37,000  Level Houston Center
Tue 05:41:16 PM 27.1936 -91.9744 131° Southeast 435 501 37,000  Level Houston Center
Tue 05:42:18 PM 27.1014 -91.8931 142° Southeast 426 490 37,000  Level Houston Center
Tue 05:43:20 PM 27.0003 -91.8292 151° Southeast 421 484 37,000  Level Houston Center
Tue 05:44:22 PM 26.8658 -91.8556 190° South 404 465 37,000  Level Houston Center
Tue 05:45:24 PM 26.7556 -91.8706 187° South 402 463 37,000  Level Houston Center
Tue 05:46:26 PM 26.6572 -91.8856 188° South 401 461 37,000  Level Houston Center
Tue 05:48:00 PM 26.5224 -91.7582 140° Southeast  Level Estimated
Tue 05:55:00 PM 25.9189 -91.1929 140° Southeast  Level Estimated
Tue 05:56:00 PM 25.8325 -91.1126 140° Southeast  Level Estimated
Tue 05:57:00 PM 25.7461 -91.0324 140° Southeast  Level Estimated
Tue 05:58:00 PM 25.6596 -90.9524 140° Southeast  Level Estimated
Tue 05:59:00 PM 25.5731 -90.8724 140° Southeast  Level Estimated
Tue 06:00:00 PM 25.4865 -90.7926 140° Southeast  Level Estimated
Tue 06:01:00 PM 25.3999 -90.7129 140° Southeast  Level Estimated
Tue 06:02:00 PM 25.3132 -90.6333 140° Southeast  Level Estimated
Tue 06:03:00 PM 25.2265 -90.5538 140° Southeast  Level Estimated
Tue 06:04:00 PM 25.1398 -90.4745 140° Southeast  Level Estimated
Tue 06:05:00 PM 25.0530 -90.3952 140° Southeast  Level Estimated
Tue 06:06:00 PM 24.9662 -90.3161 140° Southeast  Level Estimated
Tue 06:07:00 PM 24.8793 -90.2370 140° Southeast  Level Estimated
Tue 06:08:00 PM 24.7924 -90.1581 140° Southeast  Level Estimated
Tue 06:09:00 PM 24.7054 -90.0793 141° Southeast  Level Estimated
Tue 06:10:00 PM 24.6184 -90.0006 141° Southeast  Level Estimated
Tue 06:11:00 PM 24.5314 -89.9220 141° Southeast  Level Estimated
Tue 06:12:00 PM 24.4443 -89.8435 141° Southeast  Level Estimated
Tue 06:13:00 PM 24.3572 -89.7652 141° Southeast  Level Estimated
Tue 06:14:00 PM 24.2700 -89.6869 141° Southeast  Level Estimated
Tue 06:15:00 PM 24.1828 -89.6087 141° Southeast  Level Estimated
Tue 06:16:00 PM 24.0956 -89.5307 141° Southeast  Level Estimated
Tue 06:17:00 PM 24.0083 -89.4528 141° Southeast  Level Estimated
Tue 06:17:57 PM 23.8060 -89.3260 141° Southeast 423 487 37,000  Level FlightAware ADS-B
Tue 06:18:00 PM 23.9210 -89.3749 141° Southeast  Level Estimated
Tue 06:18:31 PM 23.7600 -89.2900 144° Southeast 423 487 37,000  Level FlightAware ADS-B
Tue 06:19:20 PM 23.6830 -89.2340 146° Southeast 420 483 37,000  Level FlightAware ADS-B
Tue 06:20:05 PM 23.6000 -89.1720 146° Southeast 421 484 37,000  Level FlightAware ADS-B
Tue 06:20:52 PM 23.5370 -89.1240 145° Southeast 421 484 37,000  Level FlightAware ADS-B
Tue 06:21:33 PM 23.4630 -89.0690 146° Southeast 424 488 37,000  Level FlightAware ADS-B
Tue 06:22:09 PM 23.3930 -89.0170 146° Southeast 424 488 37,000  Level FlightAware ADS-B
Tue 06:22:52 PM 23.3320 -88.9720 146° Southeast 423 487 37,000  Level FlightAware ADS-B
Tue 06:23:46 PM 23.2340 -88.8990 146° Southeast 422 486 37,000  Level FlightAware ADS-B
Tue 06:24:37 PM 23.1500 -88.8370 146° Southeast 421 484 37,000  Level FlightAware ADS-B
Tue 06:25:22 PM 23.0790 -88.7840 146° Southeast 424 488 37,000  Level FlightAware ADS-B
Tue 06:25:54 PM 23.0290 -88.7470 146° Southeast 424 488 37,000  Level FlightAware ADS-B
Tue 06:26:37 PM 22.9550 -88.6920 146° Southeast 425 489 37,000  Level FlightAware ADS-B
Tue 06:27:21 PM 22.8820 -88.6380 146° Southeast 425 489 37,000  Level FlightAware ADS-B
Tue 06:27:57 PM 22.8390 -88.6060 146° Southeast 424 488 37,000  Level FlightAware ADS-B
Tue 06:28:41 PM 22.7600 -88.5480 146° Southeast 424 488 37,000  Level FlightAware ADS-B
Tue 06:29:26 PM 22.6900 -88.4960 146° Southeast 425 489 37,000  Level FlightAware ADS-B
Tue 06:30:18 PM 22.6070 -88.4360 146° Southeast 424 488 37,000  Level FlightAware ADS-B
Tue 06:30:54 PM 22.5410 -88.3870 146° Southeast 423 487 37,000  Level FlightAware ADS-B
Tue 06:31:42 PM 22.4590 -88.3270 146° Southeast 419 482 37,000  Level FlightAware ADS-B
Tue 06:32:24 PM 22.3920 -88.2780 146° Southeast 417 480 37,000  Level FlightAware ADS-B
Tue 06:32:51 PM 22.3500 -88.2470 146° Southeast 416 479 37,000  Level FlightAware ADS-B
Tue 06:33:49 PM 22.2570 -88.1800 146° Southeast 416 479 37,000 -550 Level FlightAware ADS-B
Tue 06:34:51 PM 22.1610 -88.1040 144° Southeast 412 474 35,900 -1,750 Descending FlightAware ADS-B
Tue 06:35:25 PM 22.1140 -88.0560 137° Southeast 423 487 34,200 -3,120 Descending FlightAware ADS-B
Tue 06:36:06 PM 22.0520 -87.9930 137° Southeast 438 504 32,000 -2,765 Descending FlightAware ADS-B
Tue 06:37:07 PM 21.9700 -87.9090 136° Southeast 441 507 29,500 -2,375 Descending FlightAware ADS-B
Tue 06:37:42 PM 21.9130 -87.8510 137° Southeast 432 497 28,200 -2,108 Descending FlightAware ADS-B
Tue 06:38:21 PM 21.8580 -87.7940 136° Southeast 425 489 26,900 -2,337 Descending FlightAware ADS-B
Tue 06:39:17 PM 21.7610 -87.6960 137° Southeast 414 476 24,500 -2,455 Descending FlightAware ADS-B
Tue 06:39:49 PM 21.7150 -87.6490 136° Southeast 410 472 23,300 -2,122 Descending FlightAware ADS-B
Tue 06:40:39 PM 21.6450 -87.5770 136° Southeast 403 464 21,600 -2,067 Descending FlightAware ADS-B
Tue 06:41:19 PM 21.5910 -87.5230 137° Southeast 396 456 20,200 -2,000 Descending FlightAware ADS-B
Tue 06:41:57 PM 21.5440 -87.4750 136° Southeast 387 445 19,000 -1,952 Descending FlightAware ADS-B
Tue 06:42:42 PM 21.4840 -87.4150 137° Southeast 377 434 17,500 -1,846 Descending FlightAware ADS-B
Tue 06:43:28 PM 21.4340 -87.3650 137° Southeast 369 425 16,200 -1,906 Descending FlightAware ADS-B
Tue 06:44:07 PM 21.3820 -87.3110 136° Southeast 360 414 14,800 -1,973 Descending FlightAware ADS-B
Tue 06:44:41 PM 21.3410 -87.2710 138° Southeast 353 406 13,800 -1,948 Descending FlightAware ADS-B
Tue 06:45:24 PM 21.2840 -87.2130 137° Southeast 342 394 12,300 -1,432 Descending FlightAware ADS-B
Tue 06:46:09 PM 21.2350 -87.1630 136° Southeast 310 357 11,700 -963 Descending FlightAware ADS-B
Tue 06:46:45 PM 21.2100 -87.1170 120° Southeast 298 343 11,000 -1,308 Descending FlightAware ADS-B
Tue 06:47:27 PM 21.1870 -87.0600 113° Southeast 293 337 10,000 -1,478 Descending FlightAware ADS-B
Tue 06:47:54 PM 21.1730 -87.0250 113° Southeast 290 334 9,300 -1,071 Descending FlightAware ADS-B
Tue 06:48:23 PM 21.1580 -86.9870 113° Southeast 275 316 9,000 -526 Descending FlightAware ADS-B
Tue 06:48:51 PM 21.1440 -86.9530 114° Southeast 256 295 8,800 -429 Descending FlightAware ADS-B
Tue 06:49:19 PM 21.1320 -86.9230 113° Southeast 236 272 8,600 -889 Descending FlightAware ADS-B
Tue 06:49:45 PM 21.1200 -86.8940 114° Southeast 235 270 8,000 -1,000 Descending FlightAware ADS-B
Tue 06:50:13 PM 21.1090 -86.8650 112° Southeast 212 244 7,700 -842 Descending FlightAware ADS-B
Tue 06:50:42 PM 21.1000 -86.8380 110° East 202 232 7,200 -1,320 Descending FlightAware ADS-B
Tue 06:51:03 PM 21.0930 -86.8180 111° Southeast 201 231 6,600 -1,837 Descending FlightAware ADS-B
Tue 06:51:31 PM 21.0830 -86.7910 112° Southeast 202 232 5,700 -1,714 Descending FlightAware ADS-B
Tue 06:51:59 PM 21.0730 -86.7660 113° Southeast 197 227 5,000 -1,500 Descending FlightAware ADS-B
Tue 06:52:27 PM 21.0620 -86.7430 117° Southeast 193 222 4,300 -1,650 Descending FlightAware ADS-B
Tue 06:52:39 PM 21.0520 -86.7370 151° Southeast 192 221 3,900 -1,800 Descending FlightAware ADS-B
Tue 06:53:07 PM 21.0310 -86.7240 150° Southeast 195 224 3,100 -1,500 Descending FlightAware ADS-B
Tue 06:53:31 PM 21.0110 -86.7130 153° Southeast 194 223 2,600 -592 Descending FlightAware ADS-B
Tue 06:54:18 PM 20.9790 -86.6950 152° Southeast 180 207 2,400 -583 Descending FlightAware ADS-B
Tue 06:54:43 PM 20.9610 -86.7110 220° Southwest 188 216 1,900 -649 Descending FlightAware ADS-B
Tue 06:54:55 PM 20.9600 -86.7220 264° West 189 217 2,000 -286 Climbing FlightAware ADS-B
Tue 06:55:25 PM 20.9620 -86.7520 274° West 190 219 1,700 -783 Descending FlightAware ADS-B
Tue 06:55:41 PM 20.9680 -86.7650 296° West 189 217 1,400 -517 Descending FlightAware ADS-B
Tue 06:56:23 PM 20.9880 -86.7970 304° West 174 200 1,200 -429 Descending FlightAware ADS-B
Tue 06:57:19 PM 21.0070 -86.8310 301° West 168 193 700 -578 Descending FlightAware ADS-B
Tue 06:57:46 PM 21.0180 -86.8470 306° West 157 181 400 -400 Descending FlightAware ADS-B
Tue 06:58:19 PM 21.0290 -86.8660 302° West 157 181 300 -182 Descending FlightAware ADS-B
Tue 07:00:00 PM 21.0167 -86.8667 137° Southeast  Level FlightAware Approximate
Tue 07:01:00 PM 21.0365 -86.8771 137° Southeast  Level Estimated
Tue 07:02:00 PM 21.0365 -86.8771 137° Southeast  Level Estimated
Tue 07:03:00 PM 21.0365 -86.8771 137° Southeast  Level Estimated
Tue 07:04:00 PM 21.0365 -86.8771 137° Southeast  Level Estimated
Tue 07:05:00 PM 21.0365 -86.8771 137° Southeast  Level Estimated
Tue 07:06:00 PM 21.0365 -86.8771 137° Southeast  Level Estimated

Login

Don't have an account? Register now (free) for customized features, flight alerts, and more!